Time;durP1;ratioP1;P1;durP2;ratioP2;P2;SDS_P1;SDS_P2;PMS_P1;PMS_P2;Temp;Humidity;BMP_temperature;BMP_pressure;BME280_temperature;BME280_humidity;BME280_pressure;Samples;Min_cycle;Max_cycle;Signal;HPM_P1;HPM_P2
2023/10/20 00:02:16;;;;;;;13.83;9.30;;;7.40;99.90;;;;;;4986410;28;20315;-74
2023/10/20 00:04:41;;;;;;;19.37;9.70;;;7.40;99.90;;;;;;4967320;28;20317;-74
2023/10/20 00:07:07;;;;;;;15.93;9.73;;;7.40;99.90;;;;;;4968591;28;20289;-74
2023/10/20 00:09:32;;;;;;;14.80;9.53;;;7.40;99.90;;;;;;4969254;28;20648;-74
2023/10/20 00:11:58;;;;;;;14.87;9.23;;;7.40;99.90;;;;;;4962200;28;20183;-74
2023/10/20 00:14:25;;;;;;;18.33;10.27;;;7.40;99.90;;;;;;4979361;28;20285;-74
2023/10/20 00:16:51;;;;;;;18.63;9.37;;;7.40;99.90;;;;;;4964771;28;20740;-74
2023/10/20 00:19:18;;;;;;;14.03;9.60;;;7.40;99.90;;;;;;4963558;28;20223;-75
2023/10/20 00:21:45;;;;;;;15.67;10.60;;;7.40;99.90;;;;;;4978769;28;20657;-75
2023/10/20 00:24:11;;;;;;;16.77;10.50;;;7.40;99.90;;;;;;4979043;28;20297;-72
2023/10/20 00:26:36;;;;;;;12.73;8.57;;;7.40;99.90;;;;;;4979462;28;20289;-74
2023/10/20 00:29:02;;;;;;;16.87;9.80;;;7.40;99.90;;;;;;4975011;28;20231;-74
2023/10/20 00:31:29;;;;;;;17.57;9.67;;;7.40;99.90;;;;;;4979387;28;20302;-75
2023/10/20 00:33:55;;;;;;;13.17;9.37;;;7.40;99.90;;;;;;4972368;28;20229;-73
2023/10/20 00:36:21;;;;;;;15.30;9.77;;;7.40;99.90;;;;;;4966517;28;20222;-74
2023/10/20 00:38:46;;;;;;;12.73;8.37;;;7.40;99.90;;;;;;4973880;28;20248;-74
2023/10/20 00:41:13;;;;;;;14.23;8.70;;;7.40;99.90;;;;;;4969567;28;20305;-71
2023/10/20 00:43:39;;;;;;;13.63;8.43;;;7.30;99.90;;;;;;4972598;28;20218;-75
2023/10/20 00:46:06;;;;;;;14.93;9.13;;;7.40;99.90;;;;;;4967144;28;20217;-73
2023/10/20 00:48:34;;;;;;;13.80;8.73;;;7.40;99.90;;;;;;4967463;28;20219;-74
2023/10/20 00:51:00;;;;;;;13.80;8.07;;;7.40;99.90;;;;;;4967114;28;20197;-73
2023/10/20 00:53:28;;;;;;;14.57;7.83;;;7.40;99.90;;;;;;4966257;28;20203;-74
2023/10/20 00:55:56;;;;;;;12.93;8.60;;;7.40;99.90;;;;;;4982765;28;20244;-75
2023/10/20 00:58:24;;;;;;;15.37;8.67;;;7.40;99.90;;;;;;4968947;28;20838;-74
2023/10/20 01:00:49;;;;;;;15.67;8.70;;;7.40;99.90;;;;;;4974926;28;20210;-75
2023/10/20 01:03:15;;;;;;;13.70;8.80;;;7.40;99.90;;;;;;4973454;28;20310;-73
2023/10/20 01:05:41;;;;;;;14.67;8.13;;;7.40;99.90;;;;;;4977982;28;20245;-74
2023/10/20 01:08:08;;;;;;;12.90;8.87;;;7.30;99.90;;;;;;4971602;28;20206;-74
2023/10/20 01:10:34;;;;;;;11.90;7.13;;;7.40;99.90;;;;;;4973360;28;20360;-73
2023/10/20 01:12:59;;;;;;;14.03;8.50;;;7.40;99.90;;;;;;4963468;28;20732;-74
2023/10/20 01:15:27;;;;;;;15.20;8.80;;;7.40;99.90;;;;;;4967550;28;20210;-74
2023/10/20 01:17:53;;;;;;;12.17;7.83;;;7.40;99.90;;;;;;4967445;28;20171;-70
2023/10/20 01:20:18;;;;;;;13.67;9.03;;;7.40;99.90;;;;;;4969155;28;20285;-73
2023/10/20 01:22:44;;;;;;;14.70;9.03;;;7.40;99.90;;;;;;4971207;28;20292;-74
2023/10/20 01:25:11;;;;;;;14.93;8.80;;;7.30;99.90;;;;;;4965468;28;20235;-74
2023/10/20 01:27:37;;;;;;;13.30;7.60;;;7.40;99.90;;;;;;4966386;28;20217;-74
2023/10/20 01:30:04;;;;;;;13.33;8.07;;;7.40;99.90;;;;;;4964911;28;20181;-74
2023/10/20 01:32:30;;;;;;;13.97;8.53;;;7.40;99.90;;;;;;4963814;28;20186;-74
2023/10/20 01:34:55;;;;;;;11.17;8.17;;;7.40;99.90;;;;;;4975266;28;20216;-71
2023/10/20 01:37:21;;;;;;;12.27;8.07;;;7.40;99.90;;;;;;4970412;28;20293;-74
2023/10/20 01:39:47;;;;;;;12.10;8.37;;;7.30;99.90;;;;;;4974684;28;20214;-74
2023/10/20 01:42:13;;;;;;;11.77;8.10;;;7.40;99.90;;;;;;4970202;28;20225;-74
2023/10/20 01:44:38;;;;;;;13.77;8.33;;;7.40;99.90;;;;;;4989706;28;20205;-73
2023/10/20 01:47:04;;;;;;;14.37;8.77;;;7.40;99.90;;;;;;4970435;28;20667;-74
2023/10/20 01:49:30;;;;;;;11.53;8.20;;;7.40;99.90;;;;;;4969576;28;20253;-74
2023/10/20 01:51:56;;;;;;;12.70;6.90;;;7.40;99.90;;;;;;4964763;28;20254;-72
2023/10/20 01:54:22;;;;;;;12.83;7.57;;;7.40;99.90;;;;;;4967001;28;21291;-74
2023/10/20 01:56:48;;;;;;;10.20;6.73;;;7.40;99.90;;;;;;4968075;28;20193;-74
2023/10/20 01:59:15;;;;;;;12.10;7.73;;;7.40;99.90;;;;;;4963924;28;20209;-74
2023/10/20 02:01:41;;;;;;;11.37;7.27;;;7.40;99.90;;;;;;4965534;28;20719;-73
2023/10/20 02:04:07;;;;;;;9.97;6.57;;;7.40;99.90;;;;;;4965094;28;20217;-74
2023/10/20 02:06:34;;;;;;;10.90;7.10;;;7.50;99.90;;;;;;4980973;28;20206;-73
2023/10/20 02:09:00;;;;;;;11.03;6.93;;;7.40;99.90;;;;;;4964397;28;20181;-74
2023/10/20 02:11:25;;;;;;;11.60;7.63;;;7.40;99.90;;;;;;4962500;28;20799;-74
2023/10/20 02:13:51;;;;;;;9.70;6.57;;;7.40;99.90;;;;;;4967887;28;20222;-73
2023/10/20 02:16:17;;;;;;;9.00;6.23;;;7.40;99.90;;;;;;4984321;28;20445;-74
2023/10/20 02:18:42;;;;;;;8.67;5.77;;;7.40;99.90;;;;;;4971544;28;20209;-73
2023/10/20 02:21:09;;;;;;;9.60;6.40;;;7.40;99.90;;;;;;4977237;28;20637;-73
2023/10/20 02:23:38;;;;;;;11.23;6.40;;;7.40;99.90;;;;;;4971893;28;20261;-73
2023/10/20 02:26:06;;;;;;;9.03;6.10;;;7.40;99.90;;;;;;4971741;28;20209;-73
2023/10/20 02:28:32;;;;;;;8.27;5.83;;;7.40;99.90;;;;;;4981163;28;20211;-73
2023/10/20 02:31:00;;;;;;;10.17;6.47;;;7.40;99.90;;;;;;4977810;28;20210;-73
2023/10/20 02:33:26;;;;;;;9.73;5.93;;;7.40;99.90;;;;;;4968569;28;20226;-74
2023/10/20 02:35:54;;;;;;;9.30;5.43;;;7.40;99.90;;;;;;4967403;28;20239;-74
2023/10/20 02:38:20;;;;;;;8.10;5.30;;;7.40;99.90;;;;;;4965952;28;20298;-73
2023/10/20 02:40:53;;;;;;;7.50;5.50;;;7.40;99.90;;;;;;4966298;28;20241;-74
2023/10/20 02:43:19;;;;;;;9.57;5.47;;;7.40;99.90;;;;;;4962509;28;20218;-74
2023/10/20 02:45:53;;;;;;;7.70;4.63;;;7.40;99.90;;;;;;4964428;28;20302;-74
2023/10/20 02:48:19;;;;;;;7.93;4.50;;;7.40;99.90;;;;;;4975116;28;20215;-73
2023/10/20 02:50:45;;;;;;;8.13;4.87;;;7.40;99.90;;;;;;4978889;28;20178;-74
2023/10/20 02:53:12;;;;;;;7.43;4.97;;;7.30;99.90;;;;;;4963314;28;20640;-73
2023/10/20 02:55:38;;;;;;;7.43;4.30;;;7.30;99.90;;;;;;4967787;28;20261;-73
2023/10/20 02:58:03;;;;;;;6.00;3.90;;;7.30;99.90;;;;;;4964894;28;20211;-74
2023/10/20 03:00:29;;;;;;;4.53;3.23;;;7.30;99.90;;;;;;4965732;28;20214;-73
2023/10/20 03:02:55;;;;;;;8.23;4.27;;;7.30;99.90;;;;;;4967693;28;20171;-73
2023/10/20 03:05:21;;;;;;;4.10;2.97;;;7.30;99.90;;;;;;4966414;28;20648;-73
2023/10/20 03:07:47;;;;;;;5.53;3.80;;;7.20;99.90;;;;;;4964484;28;20256;-74
2023/10/20 03:10:13;;;;;;;7.13;3.90;;;7.20;99.90;;;;;;4965881;28;20202;-73
2023/10/20 03:12:38;;;;;;;5.43;3.83;;;7.20;99.90;;;;;;4963974;28;20288;-73
2023/10/20 03:15:07;;;;;;;11.67;3.87;;;7.20;99.90;;;;;;4965539;28;20198;-73
2023/10/20 03:17:32;;;;;;;5.70;3.20;;;7.20;99.90;;;;;;4962007;28;20647;-73
2023/10/20 03:19:58;;;;;;;6.20;3.40;;;7.20;99.90;;;;;;4964940;28;20218;-73
2023/10/20 03:22:24;;;;;;;5.87;3.90;;;7.10;99.90;;;;;;4965396;28;20462;-74
2023/10/20 03:24:49;;;;;;;4.73;3.43;;;7.20;99.90;;;;;;4964099;28;20214;-74
2023/10/20 03:27:15;;;;;;;6.30;3.80;;;7.20;99.90;;;;;;4977247;28;20186;-75
2023/10/20 03:29:40;;;;;;;4.77;3.43;;;7.20;99.90;;;;;;4970083;28;20559;-74
2023/10/20 03:32:06;;;;;;;5.23;3.63;;;7.20;99.90;;;;;;4969976;28;20210;-72
2023/10/20 03:34:32;;;;;;;4.17;3.23;;;7.20;99.90;;;;;;4965084;28;20687;-73
2023/10/20 03:37:00;;;;;;;5.63;3.40;;;7.20;99.90;;;;;;4968568;28;20210;-74
2023/10/20 03:39:27;;;;;;;7.37;3.37;;;7.10;99.90;;;;;;4964533;28;20210;-74
2023/10/20 03:41:53;;;;;;;5.53;3.50;;;7.10;99.90;;;;;;4976016;28;20178;-73
2023/10/20 03:44:22;;;;;;;5.70;3.60;;;7.10;99.90;;;;;;4968698;28;20269;-73
2023/10/20 03:46:49;;;;;;;5.97;3.60;;;7.10;99.90;;;;;;4963770;28;20696;-73
2023/10/20 03:49:16;;;;;;;4.87;3.33;;;7.10;99.90;;;;;;4965335;28;20209;-74
2023/10/20 03:51:51;;;;;;;5.37;3.00;;;7.10;99.90;;;;;;4962492;28;20215;-74
2023/10/20 03:54:17;;;;;;;6.43;3.38;;;7.10;99.90;;;;;;4964492;28;20402;-74
2023/10/20 03:56:43;;;;;;;6.27;4.10;;;7.10;99.90;;;;;;4961361;28;20646;-74
2023/10/20 03:59:09;;;;;;;5.63;3.23;;;7.10;99.90;;;;;;4963077;28;20237;-75
2023/10/20 04:01:35;;;;;;;6.20;3.70;;;7.10;99.90;;;;;;4960142;28;20302;-74
2023/10/20 04:04:01;;;;;;;5.53;3.57;;;7.10;99.90;;;;;;4970311;28;20297;-74
2023/10/20 04:06:27;;;;;;;7.27;3.53;;;7.10;99.90;;;;;;4984942;28;20260;-74
2023/10/20 04:08:52;;;;;;;7.40;3.80;;;7.10;99.90;;;;;;4969158;28;20186;-74
2023/10/20 04:11:18;;;;;;;6.40;3.83;;;7.10;99.90;;;;;;4969946;28;20209;-74
2023/10/20 04:13:44;;;;;;;4.10;3.03;;;7.10;99.90;;;;;;4964982;28;20305;-74
2023/10/20 04:16:14;;;;;;;5.87;3.20;;;7.10;99.90;;;;;;4967049;28;20698;-74
2023/10/20 04:18:43;;;;;;;7.47;4.20;;;7.00;99.90;;;;;;4962997;28;20241;-74
2023/10/20 04:21:11;;;;;;;5.80;2.57;;;7.00;99.90;;;;;;4971476;28;20190;-74
2023/10/20 04:23:37;;;;;;;6.87;3.97;;;7.00;99.90;;;;;;4971155;28;20206;-74
2023/10/20 04:26:04;;;;;;;6.20;3.77;;;7.00;99.90;;;;;;4981921;28;21055;-73
2023/10/20 04:28:38;;;;;;;6.63;4.03;;;7.10;99.90;;;;;;4965979;28;20579;-75
2023/10/20 04:42:44;;;;;;;5.47;3.40;;;7.00;99.90;;;;;;4965773;28;20189;-74
2023/10/20 04:50:34;;;;;;;6.03;4.30;;;6.90;99.90;;;;;;4970796;28;20269;-74
2023/10/20 04:52:58;;;;;;;7.57;4.57;;;6.90;99.90;;;;;;4969771;28;20214;-75
2023/10/20 04:56:21;;;;;;;6.53;4.03;;;6.90;99.90;;;;;;4967248;28;20210;-74
2023/10/20 05:01:07;;;;;;;6.53;3.40;;;6.90;99.90;;;;;;4968699;28;20284;-74
2023/10/20 05:03:45;;;;;;;5.27;3.70;;;6.80;99.90;;;;;;4964628;28;20647;-75
2023/10/20 05:06:26;;;;;;;7.00;4.03;;;6.90;99.90;;;;;;4967004;28;20185;-74
2023/10/20 05:08:52;;;;;;;5.97;4.23;;;6.90;99.90;;;;;;4966178;28;20201;-75
2023/10/20 05:11:18;;;;;;;6.47;4.47;;;6.90;99.90;;;;;;4966225;28;20208;-75
2023/10/20 05:13:44;;;;;;;8.97;4.77;;;6.80;99.90;;;;;;4962799;28;20227;-74
2023/10/20 05:16:10;;;;;;;9.43;5.30;;;6.80;99.90;;;;;;4965088;28;20627;-74
2023/10/20 05:18:40;;;;;;;6.73;4.40;;;6.80;99.90;;;;;;4966791;28;20210;-74
2023/10/20 05:21:12;;;;;;;8.73;4.20;;;6.80;99.90;;;;;;4965426;28;20242;-74
2023/10/20 05:23:38;;;;;;;6.57;4.50;;;6.80;99.90;;;;;;4965263;28;20202;-73
2023/10/20 05:26:03;;;;;;;5.13;3.93;;;6.80;99.90;;;;;;4960318;28;20203;-73
2023/10/20 05:28:30;;;;;;;11.00;7.17;;;6.80;99.90;;;;;;4965328;28;20207;-73
2023/10/20 05:30:57;;;;;;;15.07;7.47;;;6.80;99.90;;;;;;4964347;28;20242;-71
2023/10/20 05:33:25;;;;;;;7.43;4.80;;;6.80;99.90;;;;;;4966890;28;20264;-76
2023/10/20 05:35:50;;;;;;;10.13;4.97;;;6.80;99.90;;;;;;4964114;28;20203;-72
2023/10/20 05:38:16;;;;;;;7.93;4.63;;;6.90;99.90;;;;;;4966793;28;20226;-73
2023/10/20 05:40:42;;;;;;;8.63;5.07;;;6.80;99.90;;;;;;4963387;28;20269;-72
2023/10/20 05:43:08;;;;;;;10.23;5.53;;;6.70;99.90;;;;;;4964693;28;20237;-73
2023/10/20 05:45:37;;;;;;;8.73;5.40;;;6.80;99.90;;;;;;4962997;28;20618;-74
2023/10/20 05:48:05;;;;;;;11.00;5.83;;;6.70;99.90;;;;;;4963880;28;20206;-73
2023/10/20 05:50:35;;;;;;;9.33;5.03;;;6.70;99.90;;;;;;4963281;28;20553;-73
2023/10/20 05:53:00;;;;;;;7.53;5.40;;;6.70;99.90;;;;;;4961014;28;20252;-73
2023/10/20 05:55:26;;;;;;;9.03;5.10;;;6.70;99.90;;;;;;4982469;28;20314;-74
2023/10/20 05:57:51;;;;;;;12.73;6.90;;;6.80;99.90;;;;;;4966049;28;20214;-74
2023/10/20 06:00:17;;;;;;;8.73;5.37;;;6.70;99.90;;;;;;4966494;28;20215;-74
2023/10/20 06:02:46;;;;;;;9.43;6.13;;;6.60;99.90;;;;;;4963642;28;20589;-71
2023/10/20 06:05:13;;;;;;;8.93;5.33;;;6.60;99.90;;;;;;4963491;28;20368;-74
2023/10/20 06:07:40;;;;;;;9.33;5.17;;;6.60;99.90;;;;;;4964712;28;20202;-74
2023/10/20 06:10:06;;;;;;;10.53;5.43;;;6.60;99.90;;;;;;4962297;28;20372;-75
2023/10/20 06:12:31;;;;;;;9.03;5.73;;;6.60;99.90;;;;;;4962944;28;20209;-74
2023/10/20 06:14:57;;;;;;;12.67;5.33;;;6.60;99.90;;;;;;4959974;28;20583;-71
2023/10/20 06:17:23;;;;;;;9.80;5.40;;;;;;;;;;4966240;28;20184;-75
2023/10/20 06:19:49;;;;;;;7.63;5.13;;;;;;;;;;4978678;28;20211;-75
2023/10/20 06:22:16;;;;;;;9.50;5.73;;;;;;;;;;4970889;28;20237;-73
2023/10/20 06:24:43;;;;;;;9.27;5.37;;;;;;;;;;4960837;28;20227;-73
2023/10/20 06:27:11;;;;;;;12.03;6.37;;;;;;;;;;4964101;28;20198;-73
2023/10/20 06:29:48;;;;;;;8.43;5.47;;;;;;;;;;4962081;28;20233;-74
2023/10/20 06:32:27;;;;;;;10.17;5.57;;;;;;;;;;4979504;28;20321;-74
2023/10/20 06:34:59;;;;;;;9.60;5.80;;;;;;;;;;4984299;28;20224;-74
2023/10/20 06:37:30;;;;;;;8.03;4.40;;;;;;;;;;4963401;28;20206;-73
2023/10/20 06:39:56;;;;;;;10.07;5.77;;;;;;;;;;4963053;28;20218;-71
2023/10/20 06:42:24;;;;;;;9.17;6.00;;;;;;;;;;4966286;28;20638;-75
2023/10/20 06:44:50;;;;;;;9.43;6.30;;;;;;;;;;5018641;22;20233;-72
2023/10/20 06:47:16;;;;;;;17.50;6.67;;;;;;;;;;5002887;28;20675;-72
2023/10/20 06:49:42;;;;;;;9.13;5.53;;;;;;;;;;5003246;28;20228;-72
2023/10/20 06:52:09;;;;;;;10.37;5.90;;;;;;;;;;5001902;28;20214;-72
2023/10/20 06:54:34;;;;;;;12.47;6.23;;;;;;;;;;4998727;28;20300;-72
2023/10/20 06:57:01;;;;;;;12.10;5.77;;;;;;;;;;5017626;28;20206;-72
2023/10/20 06:59:27;;;;;;;14.07;6.10;;;;;;;;;;5002594;28;20185;-71
2023/10/20 07:01:59;;;;;;;8.10;5.30;;;;;;;;;;5002530;28;20276;-72
2023/10/20 07:04:26;;;;;;;17.60;8.97;;;;;;;;;;5001511;28;20217;-73
2023/10/20 07:06:52;;;;;;;13.03;6.70;;;;;;;;;;4998569;28;20573;-72
2023/10/20 07:09:18;;;;;;;12.80;6.80;;;;;;;;;;4999479;28;20210;-72
2023/10/20 07:11:45;;;;;;;10.93;7.00;;;;;;;;;;5003371;28;20181;-72
2023/10/20 07:14:11;;;;;;;8.50;6.03;;;;;;;;;;4998328;28;20224;-71
2023/10/20 07:16:37;;;;;;;11.30;7.03;;;;;;;;;;5013369;28;20209;-73
2023/10/20 07:19:04;;;;;;;11.30;6.03;;;;;;;;;;5000072;28;20224;-72
2023/10/20 07:21:30;;;;;;;10.40;6.27;;;;;;;;;;5003265;28;20714;-72
2023/10/20 07:23:56;;;;;;;9.60;5.90;;;;;;;;;;4999234;28;20770;-71
2023/10/20 07:26:24;;;;;;;10.57;5.50;;;;;;;;;;5002006;28;20197;-72
2023/10/20 07:28:50;;;;;;;9.13;6.23;;;;;;;;;;5014783;28;20217;-72
2023/10/20 07:31:17;;;;;;;9.87;5.60;;;;;;;;;;5002488;28;20210;-72
2023/10/20 07:33:43;;;;;;;9.07;6.13;;;;;;;;;;5014074;28;20221;-72
2023/10/20 07:36:10;;;;;;;9.37;5.30;;;;;;;;;;5015023;28;20645;-73
2023/10/20 07:38:36;;;;;;;10.67;5.43;;;;;;;;;;5014459;28;20200;-72
2023/10/20 07:41:10;;;;;;;8.50;5.87;;;;;;;;;;5000694;28;20300;-72
2023/10/20 07:43:36;;;;;;;10.60;5.87;;;;;;;;;;4997126;28;20221;-73
2023/10/20 07:46:02;;;;;;;7.30;4.83;;;;;;;;;;4999479;28;20220;-72
2023/10/20 07:48:31;;;;;;;12.03;6.27;;;;;;;;;;4998488;28;20232;-71
2023/10/20 07:50:59;;;;;;;8.03;5.70;;;;;;;;;;4999996;28;20173;-72
2023/10/20 07:53:25;;;;;;;12.43;5.90;;;;;;;;;;4999217;28;20197;-72
2023/10/20 07:55:51;;;;;;;11.23;5.77;;;;;;;;;;5017778;28;20204;-72
2023/10/20 07:58:18;;;;;;;8.57;6.30;;;;;;;;;;5017731;28;20209;-72
2023/10/20 08:00:44;;;;;;;8.70;5.20;;;;;;;;;;5004342;28;20592;-73
2023/10/20 08:03:11;;;;;;;9.40;5.57;;;;;;;;;;5002397;28;20197;-73
2023/10/20 08:05:37;;;;;;;5.80;3.50;;;;;;;;;;5003857;28;20221;-71
2023/10/20 08:08:04;;;;;;;9.07;5.57;;;;;;;;;;5003324;28;20308;-73
2023/10/20 08:10:30;;;;;;;10.77;6.10;;;;;;;;;;5005765;28;20220;-73
2023/10/20 08:12:56;;;;;;;10.13;5.97;;;;;;;;;;5002998;28;20300;-70
2023/10/20 08:15:23;;;;;;;7.27;5.03;;;;;;;;;;5003938;28;20310;-72
2023/10/20 08:17:50;;;;;;;8.40;5.23;;;;;;;;;;5017045;28;20178;-72
2023/10/20 08:20:16;;;;;;;10.43;6.03;;;;;;;;;;5002043;28;20206;-72
2023/10/20 08:22:43;;;;;;;7.33;5.43;;;;;;;;;;5004660;28;20212;-72
2023/10/20 08:25:09;;;;;;;8.60;5.23;;;;;;;;;;5004398;28;20298;-74
2023/10/20 08:27:38;;;;;;;9.30;4.73;;;;;;;;;;5010556;28;20239;-73
2023/10/20 08:30:05;;;;;;;9.53;5.47;;;;;;;;;;5002882;28;20197;-73
2023/10/20 08:32:31;;;;;;;6.87;3.73;;;;;;;;;;5006720;28;20180;-72
2023/10/20 08:34:58;;;;;;;8.13;4.97;;;;;;;;;;5004711;28;20299;-71
2023/10/20 08:37:25;;;;;;;8.37;5.40;;;6.20;99.90;;;;;;5020265;28;20205;-74
2023/10/20 08:39:51;;;;;;;6.80;3.87;;;;;;;;;;5006566;28;20213;-72
2023/10/20 08:42:21;;;;;;;6.53;4.27;;;;;;;;;;5002104;28;20253;-73
2023/10/20 08:44:49;;;;;;;8.20;4.00;;;;;;;;;;5003606;28;20209;-72
2023/10/20 08:47:16;;;;;;;7.83;4.63;;;;;;;;;;5002655;28;20264;-72
2023/10/20 08:49:42;;;;;;;6.03;4.40;;;;;;;;;;5004005;28;20228;-72
2023/10/20 08:52:10;;;;;;;6.87;4.03;;;;;;;;;;5005944;28;20734;-73
2023/10/20 08:54:36;;;;;;;9.30;4.53;;;;;;;;;;5019639;28;20219;-72
2023/10/20 08:57:02;;;;;;;9.07;5.10;;;;;;;;;;5001527;28;20185;-73
2023/10/20 08:59:28;;;;;;;7.83;4.70;;;;;;;;;;5008361;28;20602;-72
2023/10/20 09:01:55;;;;;;;6.60;4.33;;;;;;;;;;5005173;28;20283;-73
2023/10/20 09:04:22;;;;;;;9.63;5.47;;;;;;;;;;4997163;28;20221;-72
2023/10/20 09:06:48;;;;;;;6.23;4.57;;;;;;;;;;5001172;28;20209;-73
2023/10/20 09:09:14;;;;;;;8.20;4.40;;;;;;;;;;5007810;28;20186;-73
2023/10/20 09:11:43;;;;;;;7.77;4.70;;;;;;;;;;5006304;28;20177;-73
2023/10/20 09:14:12;;;;;;;7.17;4.30;;;;;;;;;;5000433;28;20224;-73
2023/10/20 09:16:42;;;;;;;6.70;4.50;;;;;;;;;;5004469;28;20217;-73
2023/10/20 09:19:11;;;;;;;8.00;4.93;;;;;;;;;;5015066;28;20708;-73
2023/10/20 09:21:41;;;;;;;7.07;4.60;;;;;;;;;;5000721;28;20259;-73
2023/10/20 09:24:08;;;;;;;7.37;4.10;;;;;;;;;;5015587;28;20220;-73
2023/10/20 09:26:36;;;;;;;5.43;4.17;;;6.10;99.90;;;;;;5019593;28;20181;-73
2023/10/20 09:29:05;;;;;;;9.30;5.47;;;6.00;99.90;;;;;;5000694;28;20213;-71
2023/10/20 09:31:31;;;;;;;7.07;4.57;;;6.10;99.90;;;;;;5000571;28;20220;-73
2023/10/20 09:33:57;;;;;;;7.57;3.93;;;6.10;99.90;;;;;;5000368;28;20312;-72
2023/10/20 09:36:23;;;;;;;8.10;4.20;;;6.10;99.90;;;;;;5016550;28;20359;-73
2023/10/20 09:38:56;;;;;;;5.13;3.77;;;6.10;99.90;;;;;;5001430;28;20203;-73
2023/10/20 09:41:27;;;;;;;8.63;4.43;;;6.10;99.90;;;;;;5000938;28;20731;-73
2023/10/20 09:44:02;;;;;;;5.13;3.70;;;6.10;99.90;;;;;;5000438;28;20224;-73
2023/10/20 09:46:52;;;;;;;6.23;3.87;;;6.10;99.90;;;;;;5000379;28;20209;-72
2023/10/20 09:49:20;;;;;;;5.73;3.90;;;6.10;99.90;;;;;;5000203;28;20209;-73
2023/10/20 09:51:48;;;;;;;7.17;4.13;;;6.10;99.90;;;;;;5002219;28;20283;-73
2023/10/20 09:54:16;;;;;;;5.87;3.67;;;6.10;99.90;;;;;;5001596;28;20300;-73
2023/10/20 09:56:44;;;;;;;6.03;4.20;;;6.10;99.90;;;;;;5005985;28;20188;-73
2023/10/20 09:59:12;;;;;;;9.60;5.57;;;6.10;99.90;;;;;;5000516;28;20680;-73
2023/10/20 10:01:38;;;;;;;7.03;3.63;;;6.10;99.90;;;;;;4998402;28;20221;-74
2023/10/20 10:04:05;;;;;;;4.37;3.23;;;6.10;99.90;;;;;;4998110;28;20903;-72
2023/10/20 10:06:38;;;;;;;5.50;3.57;;;6.10;99.90;;;;;;5003226;28;20209;-73
2023/10/20 10:09:08;;;;;;;5.33;3.43;;;6.00;99.90;;;;;;5014734;28;20782;-72
2023/10/20 10:11:40;;;;;;;8.40;4.30;;;6.10;99.90;;;;;;5007354;28;20177;-73
2023/10/20 10:14:05;;;;;;;7.67;3.90;;;6.00;99.90;;;;;;4997683;28;20715;-72
2023/10/20 10:16:32;;;;;;;5.73;3.20;;;6.10;99.90;;;;;;5006656;28;20219;-73
2023/10/20 10:19:10;;;;;;;7.37;3.80;;;6.00;99.90;;;;;;5008366;28;20244;-72
2023/10/20 10:21:39;;;;;;;5.10;3.70;;;6.10;99.90;;;;;;4999616;28;20217;-73
2023/10/20 10:24:16;;;;;;;6.43;3.53;;;6.10;99.90;;;;;;5000789;28;20698;-73
2023/10/20 10:27:04;;;;;;;5.03;3.63;;;6.10;99.90;;;;;;5001413;28;20181;-73
2023/10/20 10:30:13;;;;;;;5.27;3.13;;;6.10;99.90;;;;;;5003379;28;20209;-72
2023/10/20 10:32:45;;;;;;;5.57;3.17;;;6.10;99.90;;;;;;4995648;28;20289;-73
2023/10/20 10:35:16;;;;;;;4.67;3.20;;;6.10;99.90;;;;;;5002141;28;20223;-73
2023/10/20 10:37:42;;;;;;;4.87;3.20;;;6.10;99.90;;;;;;5003138;28;20582;-73
2023/10/20 10:40:12;;;;;;;8.47;5.00;;;6.20;99.90;;;;;;5001435;28;20213;-72
2023/10/20 10:42:41;;;;;;;7.27;4.70;;;6.20;99.90;;;;;;5002605;28;20220;-74
2023/10/20 10:45:24;;;;;;;7.77;5.33;;;6.10;99.90;;;;;;4998328;28;20271;-71
2023/10/20 10:47:51;;;;;;;10.37;5.10;;;6.20;99.90;;;;;;4996775;28;20929;-73
2023/10/20 10:50:20;;;;;;;7.90;5.30;;;6.20;99.90;;;;;;5000762;28;20228;-72
2023/10/20 10:52:47;;;;;;;35.50;19.33;;;6.30;99.90;;;;;;5002678;28;20296;-72
2023/10/20 10:55:13;;;;;;;9.97;6.23;;;6.20;99.90;;;;;;5000703;28;20224;-72
2023/10/20 10:57:40;;;;;;;4.93;3.90;;;6.20;99.90;;;;;;5007073;28;20219;-72
2023/10/20 11:00:07;;;;;;;7.00;3.37;;;6.20;99.90;;;;;;5002391;28;20188;-73
2023/10/20 11:02:33;;;;;;;4.03;2.60;;;6.20;99.90;;;;;;5013624;28;20186;-73
2023/10/20 11:05:01;;;;;;;4.27;3.27;;;6.20;99.90;;;;;;5001506;28;20300;-73
2023/10/20 11:07:26;;;;;;;4.50;2.90;;;6.20;99.90;;;;;;4998111;28;20216;-71
2023/10/20 11:09:53;;;;;;;7.13;3.10;;;6.10;99.90;;;;;;5002516;28;20232;-72
2023/10/20 11:12:21;;;;;;;5.37;3.00;;;6.10;99.90;;;;;;5001242;28;20300;-73
2023/10/20 11:14:47;;;;;;;5.73;2.97;;;6.10;99.90;;;;;;5000767;28;20588;-73
2023/10/20 11:17:14;;;;;;;5.07;3.23;;;6.10;99.90;;;;;;5003896;28;20225;-70
2023/10/20 11:19:40;;;;;;;2.70;2.10;;;6.00;99.90;;;;;;5001132;28;20224;-71
2023/10/20 11:22:15;;;;;;;7.17;2.93;;;6.00;99.90;;;;;;4998459;28;20272;-70
2023/10/20 11:24:41;;;;;;;4.17;3.10;;;6.00;99.90;;;;;;4994624;28;20278;-71
2023/10/20 11:27:07;;;;;;;4.83;3.07;;;6.00;99.90;;;;;;4998491;28;20188;-71
2023/10/20 11:29:35;;;;;;;4.50;2.83;;;6.00;99.90;;;;;;4998878;28;20216;-72
2023/10/20 11:32:05;;;;;;;4.63;3.20;;;6.00;99.90;;;;;;5002414;28;20293;-73
2023/10/20 11:34:35;;;;;;;3.97;2.30;;;6.00;99.90;;;;;;4997624;28;20236;-72
2023/10/20 11:37:02;;;;;;;3.73;2.83;;;6.00;99.90;;;;;;5006244;28;20296;-72
2023/10/20 11:39:28;;;;;;;4.20;2.67;;;6.00;99.90;;;;;;5002580;28;20828;-72
2023/10/20 11:41:55;;;;;;;6.77;3.10;;;6.00;99.90;;;;;;5003721;28;20177;-72
2023/10/20 11:44:24;;;;;;;4.10;2.80;;;6.00;99.90;;;;;;4996563;28;20307;-72
2023/10/20 11:46:53;;;;;;;5.13;3.17;;;6.10;99.90;;;;;;5001608;28;20233;-72
2023/10/20 11:49:20;;;;;;;4.47;3.37;;;6.00;99.90;;;;;;4998480;28;20202;-72
2023/10/20 11:51:46;;;;;;;3.70;2.63;;;6.00;99.90;;;;;;4997626;28;20271;-71
2023/10/20 11:54:12;;;;;;;5.90;3.27;;;6.00;99.90;;;;;;5001577;28;20617;-72
2023/10/20 11:56:38;;;;;;;4.73;2.73;;;6.00;99.90;;;;;;5001742;28;20174;-71
2023/10/20 11:59:04;;;;;;;6.10;2.93;;;6.00;99.90;;;;;;5002019;28;20600;-71
2023/10/20 12:01:32;;;;;;;3.97;2.60;;;6.10;99.90;;;;;;5000324;28;20263;-72
2023/10/20 12:04:05;;;;;;;3.47;2.50;;;6.10;99.90;;;;;;5004707;28;20312;-71
2023/10/20 12:06:31;;;;;;;3.93;2.50;;;6.10;99.90;;;;;;5006554;28;20213;-71
2023/10/20 12:08:56;;;;;;;3.80;2.60;;;6.10;99.90;;;;;;4998396;28;20545;-70
2023/10/20 12:11:22;;;;;;;4.10;2.63;;;6.10;99.90;;;;;;5006423;28;20231;-71
2023/10/20 12:13:48;;;;;;;3.70;3.00;;;6.10;99.90;;;;;;5000294;28;20217;-72
2023/10/20 12:16:19;;;;;;;4.83;2.37;;;6.10;99.90;;;;;;5000862;28;20287;-73
2023/10/20 12:18:46;;;;;;;4.03;2.40;;;6.10;99.90;;;;;;5001105;28;20220;-71
2023/10/20 12:21:13;;;;;;;3.37;2.27;;;6.20;99.90;;;;;;4997930;28;20757;-71
2023/10/20 12:23:38;;;;;;;4.20;2.50;;;6.20;99.90;;;;;;5001179;28;20217;-72
2023/10/20 12:26:04;;;;;;;2.63;1.93;;;6.20;99.90;;;;;;5002106;28;20699;-72
2023/10/20 12:28:31;;;;;;;3.40;2.53;;;6.20;99.90;;;;;;5003352;28;20214;-72
2023/10/20 12:30:57;;;;;;;3.70;2.20;;;6.20;99.90;;;;;;5000326;28;20216;-72
2023/10/20 12:33:24;;;;;;;2.73;2.20;;;6.30;99.90;;;;;;4996702;28;20259;-72
2023/10/20 12:35:53;;;;;;;3.40;2.17;;;6.20;99.90;;;;;;5003236;28;20554;-72
2023/10/20 12:38:19;;;;;;;2.77;2.17;;;6.20;99.90;;;;;;5004548;28;20213;-73
2023/10/20 12:40:44;;;;;;;2.43;1.87;;;6.30;99.90;;;;;;5000847;28;20773;-72
2023/10/20 12:43:10;;;;;;;2.23;1.70;;;6.20;99.90;;;;;;5003611;28;20328;-72
2023/10/20 12:45:38;;;;;;;1.87;1.57;;;6.20;99.90;;;;;;5000590;28;20252;-72
2023/10/20 12:48:08;;;;;;;2.10;1.90;;;6.20;99.90;;;;;;5006718;28;20217;-72
2023/10/20 12:50:34;;;;;;;3.83;1.70;;;6.20;99.90;;;;;;5010303;22;20238;-74
2023/10/20 12:53:00;;;;;;;1.60;1.17;;;6.20;99.90;;;;;;4971947;28;20207;-73
2023/10/20 12:55:26;;;;;;;2.10;1.50;;;6.20;99.90;;;;;;4968088;28;20217;-73
2023/10/20 12:57:52;;;;;;;2.27;1.50;;;6.30;99.90;;;;;;4971995;28;20624;-74
2023/10/20 13:00:19;;;;;;;3.80;2.37;;;6.20;99.90;;;;;;4968551;28;20214;-73
2023/10/20 13:02:48;;;;;;;1.93;1.60;;;6.20;99.90;;;;;;4968862;28;20607;-73
2023/10/20 13:05:14;;;;;;;1.73;1.50;;;6.20;99.90;;;;;;4971325;28;20221;-73
2023/10/20 13:07:40;;;;;;;3.10;1.80;;;6.20;99.90;;;;;;4971248;28;20206;-73
2023/10/20 13:10:06;;;;;;;2.20;1.17;;;6.20;99.90;;;;;;4968435;28;20757;-74
2023/10/20 13:12:32;;;;;;;2.00;1.40;;;6.20;99.90;;;;;;4966703;28;20817;-74
2023/10/20 13:14:58;;;;;;;1.83;1.20;;;6.20;99.90;;;;;;4964778;28;20270;-72
2023/10/20 13:17:23;;;;;;;1.50;1.20;;;6.20;99.90;;;;;;4973491;28;20676;-73
2023/10/20 13:19:49;;;;;;;1.33;0.90;;;;;;;;;;4966800;28;20297;-74
2023/10/20 13:22:16;;;;;;;1.27;1.17;;;;;;;;;;4969716;28;20619;-73
2023/10/20 13:24:44;;;;;;;1.50;1.37;;;;;;;;;;4967239;28;20270;-74
2023/10/20 13:27:10;;;;;;;2.50;1.10;;;;;;;;;;4966814;28;20171;-74
2023/10/20 13:29:37;;;;;;;1.93;1.17;;;;;;;;;;4968046;28;20202;-73
2023/10/20 13:32:03;;;;;;;2.10;1.50;;;;;;;;;;4971459;28;20237;-73
2023/10/20 13:34:29;;;;;;;3.00;1.20;;;;;;;;;;4970485;28;20213;-72
2023/10/20 13:36:55;;;;;;;2.83;1.43;;;;;;;;;;4971200;28;20592;-73
2023/10/20 13:39:22;;;;;;;2.37;1.50;;;6.10;99.90;;;;;;4970944;28;20219;-74
2023/10/20 13:41:48;;;;;;;1.90;1.50;;;6.10;99.90;;;;;;4971177;28;20175;-73